ADDS METAR Data INFO
IDs: Format: Raw Decoded Include TAF

Data at: 0924 UTC 13 Dec 2017

KMNE 130915Z AUTO 00000KT 10SM CLR M01/M03 A3015 RMK AO2 T10131030
KMNE 130855Z AUTO 00000KT 10SM CLR M01/M03 A3016 RMK AO2 T10101030
KMNE 130835Z AUTO 00000KT 10SM CLR M01/M03 A3017 RMK AO2 T10081031
KMNE 130815Z AUTO 00000KT 10SM CLR M01/M03 A3017 RMK AO2 T10111032
KMNE 130755Z AUTO 00000KT 10SM CLR 00/M03 A3017 RMK AO2 T10051033
KMNE 130735Z AUTO 00000KT 10SM CLR M01/M03 A3017 RMK AO2 T10091031
KMNE 130715Z AUTO 00000KT 10SM CLR 00/M03 A3017 RMK AO2 T10021030
KMNE 130655Z AUTO 00000KT 10SM CLR 00/M03 A3018 RMK AO2 T10051029
KMNE 130635Z AUTO 00000KT 10SM CLR 00/M03 A3018 RMK AO2 T00001030
KMNE 130615Z AUTO 00000KT 10SM CLR 00/M03 A3019 RMK AO2 T00001028
KMNE 130555Z AUTO 00000KT 10SM CLR 00/M03 A3019 RMK AO2 T00001030 10092 20000 401520000
KMNE 130535Z AUTO 00000KT 10SM CLR 00/M03 A3020 RMK AO2 T00031029
KMNE 130515Z AUTO 00000KT 10SM CLR 01/M03 A3020 RMK AO2 T00051027
KMNE 130455Z AUTO 00000KT 10SM CLR 01/M03 A3021 RMK AO2 T00071028
KMNE 130435Z AUTO 00000KT 10SM CLR 01/M03 A3021 RMK AO2 T00061030
KMNE 130415Z AUTO 00000KT 10SM CLR 02/M03 A3021 RMK AO2 T00151026
KMNE 130355Z AUTO 00000KT 10SM CLR 01/M03 A3021 RMK AO2 T00141029
KMNE 130335Z AUTO 00000KT 10SM CLR 02/M03 A3021 RMK AO2 T00161026
KMNE 130315Z AUTO 00000KT 10SM CLR 02/M03 A3021 RMK AO2 T00201026
KMNE 130255Z AUTO 00000KT 10SM CLR 03/M02 A3021 RMK AO2 T00281025
KMNE 130235Z AUTO 00000KT 10SM CLR 03/M03 A3022 RMK AO2 T00271026
KMNE 130215Z AUTO 00000KT 10SM CLR 04/M03 A3022 RMK AO2 T00371029
KMNE 130155Z AUTO 00000KT 10SM CLR 04/M03 A3022 RMK AO2 T00361026
KMNE 130055Z AUTO 00000KT 10SM CLR 06/M03 A3022 RMK AO2 T00601028
KMNE 130035Z AUTO 00000KT 10SM CLR 07/M04 A3022 RMK AO2 T00711040
KMNE 130015Z AUTO 32003KT 10SM CLR 08/M04 A3022 RMK AO2 T00831044
KMNE 122355Z AUTO 00000KT 10SM CLR 10/M04 A3022 RMK AO2 T00951045 10152 20095
KMNE 122335Z AUTO 31003KT 10SM CLR 10/M05 A3022 RMK AO2 T01031055
KMNE 122315Z AUTO 31004KT 10SM CLR 11/M06 A3021 RMK AO2 T01101058
KMNE 122255Z AUTO 30006KT 10SM CLR 12/M06 A3021 RMK AO2 T01211060
KMNE 122235Z AUTO 32006KT 10SM CLR 13/M06 A3021 RMK AO2 T01311065
KMNE 122215Z AUTO 30006KT 10SM CLR 14/M06 A3021 RMK AO2 T01381062
KMNE 122155Z AUTO 30009KT 10SM CLR 14/M06 A3021 RMK AO2 T01411063
KMNE 122135Z AUTO 31008KT 10SM CLR 15/M06 A3021 RMK AO2 T01451065
KMNE 122115Z AUTO 33009KT 10SM CLR 15/M06 A3022 RMK AO2 T01461058
KMNE 122055Z AUTO 33010KT 10SM CLR 15/M06 A3022 RMK AO2 T01471057
KMNE 122035Z AUTO 30010KT 10SM CLR 15/M05 A3022 RMK AO2 T01511053
KMNE 122015Z AUTO 32010KT 10SM CLR 15/M05 A3023 RMK AO2 T01501053
KMNE 121955Z AUTO 33008G17KT 10SM CLR 15/M06 A3024 RMK AO2 T01471058
KMNE 121935Z AUTO 30007G15KT 10SM CLR 15/M05 A3024 RMK AO2 T01471055
KMNE 121915Z AUTO 35007G14KT 10SM CLR 14/M05 A3026 RMK AO2 T01431053
KMNE 121855Z AUTO 30008KT 10SM CLR 14/M04 A3027 RMK AO2 T01411043
KMNE 121835Z AUTO 32008KT 10SM CLR 14/M04 A3028 RMK AO2 T01401040
KMNE 121815Z AUTO 31007KT 10SM CLR 13/M04 A3028 RMK AO2 T01331039
KMNE 121755Z AUTO 33006KT 10SM CLR 13/M04 A3029 RMK AO2 T01301039 10130 20022
KMNE 121735Z AUTO 30005KT 10SM CLR 12/M04 A3030 RMK AO2 T01241041
KMNE 121715Z AUTO 34006KT 10SM CLR 12/M04 A3031 RMK AO2 T01221036
KMNE 121655Z AUTO 34008KT 10SM CLR 12/M03 A3031 RMK AO2 T01171033
KMNE 121635Z AUTO 33010KT 10SM CLR 11/M02 A3032 RMK AO2 T01131020
KMNE 121615Z AUTO 35008G15KT 10SM CLR 11/M02 A3031 RMK AO2 T01101016
KMNE 121555Z AUTO 35008G16KT 10SM CLR 11/M01 A3032 RMK AO2 T01051007
KMNE 121535Z AUTO 33012G15KT 10SM CLR 10/00 A3032 RMK AO2 T01011001
KMNE 121515Z AUTO 33007KT 10SM CLR 10/00 A3031 RMK AO2 T00950002
KMNE 121455Z AUTO 33007KT 10SM CLR 09/00 A3030 RMK AO2 T00880003
KMNE 121435Z AUTO 33005KT 10SM CLR 08/00 A3029 RMK AO2 T00790000
KMNE 121415Z AUTO 33004KT 10SM CLR 07/00 A3029 RMK AO2 T00700000
KMNE 121355Z AUTO 33003KT 10SM CLR 05/00 A3028 RMK AO2 T00530000
KMNE 121335Z AUTO 33003KT 10SM CLR 03/00 A3027 RMK AO2 T00281001
KMNE 121315Z AUTO 00000KT 10SM CLR 03/M01 A3026 RMK AO2 T00281007
KMNE 121255Z AUTO 00000KT 10SM CLR 04/M01 A3026 RMK AO2 T00381012
KMNE 121235Z AUTO 00000KT 10SM CLR 05/M01 A3024 RMK AO2 T00481015
KMNE 121215Z AUTO 00000KT 10SM CLR 05/M01 A3023 RMK AO2 T00481012
KMNE 121155Z AUTO 00000KT 10SM CLR 05/M01 A3022 RMK AO2 T00521015 10116 20052
KMNE 121135Z AUTO 33003KT 10SM CLR 06/M01 A3022 RMK AO2 T00601014
KMNE 121115Z AUTO 33004KT 10SM CLR 07/M01 A3020 RMK AO2 T00661014
KMNE 121055Z AUTO 34004KT 10SM CLR 08/M02 A3020 RMK AO2 T00801020
KMNE 121035Z AUTO 33005KT 10SM CLR 09/M02 A3020 RMK AO2 T00851021
KMNE 121015Z AUTO 34007KT 10SM CLR 09/M02 A3018 RMK AO2 T00871025
KMNE 120955Z AUTO 33006KT 10SM CLR 08/M02 A3018 RMK AO2 T00821023
KMNE 120935Z AUTO 32004KT 10SM CLR 09/M03 A3017 RMK AO2 T00851027
KMNE 120915Z AUTO 33006KT 10SM CLR 08/M01 A3016 RMK AO2 T00771015
KMNE 120855Z AUTO 33004KT 10SM CLR 07/M01 A3016 RMK AO2 T00681009
KMNE 120835Z AUTO 34004KT 10SM CLR 06/00 A3015 RMK AO2 T00621005
KMNE 120815Z AUTO 32003KT 10SM CLR 06/00 A3015 RMK AO2 T00560004
KMNE 120755Z AUTO 33003KT 10SM CLR 06/01 A3013 RMK AO2 T00580006
KMNE 120735Z AUTO 33003KT 10SM CLR 07/00 A3013 RMK AO2 T00701002
KMNE 120715Z AUTO 33005KT 10SM CLR 08/M01 A3012 RMK AO2 T00811010
KMNE 120655Z AUTO 32004KT 10SM CLR 10/M02 A3012 RMK AO2 T00971016
KMNE 120635Z AUTO 31004KT 10SM CLR 11/M02 A3012 RMK AO2 T01081017
KMNE 120615Z AUTO 30003KT 10SM CLR 12/M02 A3012 RMK AO2 T01151018
KMNE 120555Z AUTO 30004KT 10SM CLR 12/M01 A3011 RMK AO2 T01161013 10168 20098 402430000
KMNE 120535Z AUTO 28004KT 10SM CLR 12/M01 A3010 RMK AO2 T01201013
KMNE 120515Z AUTO 29005KT 10SM CLR 13/M01 A3010 RMK AO2 T01271012
KMNE 120455Z AUTO 28006KT 10SM CLR 13/00 A3010 RMK AO2 T01251005
KMNE 120435Z AUTO 26004KT 10SM CLR 12/00 A3009 RMK AO2 T01201005
KMNE 120415Z AUTO 00000KT 10SM CLR 10/00 A3009 RMK AO2 T01030004
KMNE 120355Z AUTO 00000KT 10SM CLR 12/00 A3008 RMK AO2 T01220000
KMNE 120335Z AUTO 00000KT 10SM CLR 13/00 A3007 RMK AO2 T01261001
KMNE 120315Z AUTO 00000KT 10SM CLR 12/00 A3007 RMK AO2 T01230000
KMNE 120255Z AUTO 20003KT 10SM CLR 13/00 A3007 RMK AO2 T01310000
KMNE 120235Z AUTO 00000KT 10SM CLR 14/00 A3007 RMK AO2 T01390000
KMNE 120215Z AUTO 19003KT 10SM CLR 14/00 A3007 RMK AO2 T01390001
KMNE 120155Z AUTO 20004KT 10SM CLR 14/01 A3007 RMK AO2 T01430005
KMNE 120135Z AUTO 20004KT 10SM CLR 14/01 A3007 RMK AO2 T01440005
KMNE 120115Z AUTO 20004KT 10SM CLR 15/00 A3007 RMK AO2 T01470000
KMNE 120055Z AUTO 20004KT 10SM CLR 16/00 A3007 RMK AO2 T01551002
KMNE 120035Z AUTO 20003KT 10SM CLR 16/M01 A3006 RMK AO2 T01581011
KMNE 120015Z AUTO 00000KT 10SM CLR 16/M02 A3006 RMK AO2 T01611016
KMNE 112355Z AUTO 00000KT 10SM CLR 17/M02 A3006 RMK AO2 T01721020 10243 20171
KMNE 112335Z AUTO 00000KT 10SM CLR 18/M02 A3005 RMK AO2 T01771020
KMNE 112315Z AUTO 21003KT 10SM CLR 19/M03 A3005 RMK AO2 T01891030
KMNE 112255Z AUTO 21003KT 7SM CLR 20/M04 A3005 RMK AO2 T02001036
KMNE 112235Z AUTO 25003KT 10SM CLR 21/M04 A3006 RMK AO2 T02141036
KMNE 112215Z AUTO 23005KT 10SM CLR 22/M04 A3006 RMK AO2 T02241039
KMNE 112155Z AUTO 23005KT 10SM CLR 23/M04 A3006 RMK AO2 T02331040
KMNE 112135Z AUTO 20005KT 10SM CLR 23/M01 A3006 RMK AO2 T02341011